Time;durP1;ratioP1;P1;durP2;ratioP2;P2;SDS_P1;SDS_P2;PMS_P1;PMS_P2;Temp;Humidity;BMP_temperature;BMP_pressure;BME280_temperature;BME280_humidity;BME280_pressure;Samples;Min_cycle;Max_cycle;Signal;HPM_P1;HPM_P2
2022/12/22 03:27:53;;;;;;;3.50;3.00;;;20.60;62.50;;;;;;5026141;28;20290;-37
2022/12/22 03:30:20;;;;;;;3.80;3.08;;;20.60;62.40;;;;;;5028099;28;20266;-36
2022/12/22 03:32:48;;;;;;;3.92;3.17;;;20.60;62.40;;;;;;5023107;28;20773;-35
2022/12/22 03:35:15;;;;;;;5.32;3.15;;;20.50;62.30;;;;;;5029072;28;20191;-35
2022/12/22 03:37:41;;;;;;;5.10;3.90;;;20.50;62.40;;;;;;5027181;28;20683;-35
2022/12/22 03:40:09;;;;;;;4.55;3.97;;;20.50;62.50;;;;;;5023659;28;20196;-36
2022/12/22 03:48:06;;;;;;;4.68;3.38;;;20.40;62.50;;;;;;5024724;28;20208;-36
2022/12/22 03:50:32;;;;;;;4.40;3.42;;;20.40;62.80;;;;;;5028616;28;20205;-36
2022/12/22 03:52:59;;;;;;;4.50;4.05;;;20.40;62.80;;;;;;5028551;28;20199;-36
2022/12/22 03:55:26;;;;;;;3.35;2.65;;;20.50;62.90;;;;;;5027270;28;20197;-36
2022/12/22 03:57:53;;;;;;;4.38;3.30;;;20.70;62.50;;;;;;5025007;28;20224;-36
2022/12/22 04:00:20;;;;;;;4.95;3.08;;;20.80;62.10;;;;;;5028963;28;20258;-35
2022/12/22 04:02:47;;;;;;;4.32;3.22;;;20.80;61.80;;;;;;5024847;28;20554;-35
2022/12/22 04:05:15;;;;;;;3.88;3.38;;;20.80;61.70;;;;;;5026584;28;20196;-35
2022/12/22 04:07:41;;;;;;;3.90;3.08;;;20.80;61.70;;;;;;5027888;28;20200;-35
2022/12/22 04:12:54;;;;;;;4.28;3.28;;;20.80;61.70;;;;;;5024961;28;20206;-36
2022/12/22 04:15:21;;;;;;;3.53;2.97;;;20.80;61.70;;;;;;5027142;28;20596;-36
2022/12/22 04:17:47;;;;;;;4.63;2.55;;;20.70;61.80;;;;;;5025235;28;20204;-35
2022/12/22 04:20:15;;;;;;;4.00;3.33;;;20.70;61.90;;;;;;5028977;28;20544;-40
2022/12/22 04:22:42;;;;;;;3.47;2.95;;;20.70;62.00;;;;;;5027011;28;20235;-35
2022/12/22 04:25:10;;;;;;;4.85;3.03;;;20.60;62.00;;;;;;5026114;28;20196;-36
2022/12/22 04:27:36;;;;;;;4.85;3.45;;;20.60;62.00;;;;;;5029287;28;20192;-36
2022/12/22 04:30:03;;;;;;;3.55;2.92;;;20.50;62.00;;;;;;5029536;28;20196;-36
2022/12/22 04:32:30;;;;;;;3.58;3.05;;;20.50;62.10;;;;;;5025514;28;20196;-36
2022/12/22 04:34:57;;;;;;;3.70;2.70;;;20.50;62.20;;;;;;5025420;28;20611;-36
2022/12/22 04:37:25;;;;;;;3.75;3.45;;;20.50;62.30;;;;;;5025853;28;20676;-35
2022/12/22 04:39:52;;;;;;;4.05;2.65;;;20.40;62.20;;;;;;5025347;28;20189;-35
2022/12/22 04:42:18;;;;;;;4.00;2.90;;;20.40;62.40;;;;;;5026677;28;20628;-37
2022/12/22 04:44:45;;;;;;;4.22;2.83;;;20.30;62.30;;;;;;5027732;28;20674;-36
2022/12/22 04:47:12;;;;;;;4.65;3.15;;;20.30;62.50;;;;;;5021923;28;20556;-41
2022/12/22 04:49:38;;;;;;;4.00;2.40;;;20.30;63.40;;;;;;5030208;28;20215;-40
2022/12/22 04:52:05;;;;;;;5.10;3.35;;;20.20;62.60;;;;;;5026694;28;20656;-37
2022/12/22 04:54:33;;;;;;;2.90;2.65;;;20.20;62.70;;;;;;5029519;28;20204;-37
2022/12/22 04:57:00;;;;;;;3.47;2.55;;;20.20;62.80;;;;;;5031737;28;20541;-35
2022/12/22 04:59:27;;;;;;;3.50;2.78;;;20.30;63.20;;;;;;5035811;28;20213;-37
2022/12/22 05:01:54;;;;;;;3.35;2.30;;;20.60;62.50;;;;;;5028548;28;20806;-39
2022/12/22 05:04:20;;;;;;;2.85;2.65;;;20.80;62.00;;;;;;5032770;28;20193;-37
2022/12/22 05:06:47;;;;;;;3.33;2.40;;;20.90;61.40;;;;;;5031325;28;20233;-36
2022/12/22 05:09:14;;;;;;;3.67;2.20;;;20.90;61.10;;;;;;5025448;28;20192;-37
2022/12/22 05:11:42;;;;;;;3.33;3.00;;;21.00;61.30;;;;;;5030710;28;20199;-37
2022/12/22 05:14:09;;;;;;;4.80;3.13;;;21.10;61.20;;;;;;5029332;28;20227;-37
2022/12/22 05:16:35;;;;;;;4.13;2.40;;;21.30;60.70;;;;;;5028922;28;20445;-36
2022/12/22 05:19:02;;;;;;;3.17;2.40;;;21.50;60.30;;;;;;5029149;28;20227;-37
2022/12/22 05:21:29;;;;;;;3.03;2.72;;;21.70;59.90;;;;;;5031451;28;20883;-37
2022/12/22 05:23:55;;;;;;;2.20;2.00;;;21.90;59.60;;;;;;5024423;28;20225;-36
2022/12/22 05:26:22;;;;;;;2.55;2.33;;;22.00;59.40;;;;;;5029291;28;20203;-36
2022/12/22 05:28:50;;;;;;;3.50;2.60;;;22.20;59.30;;;;;;5031563;28;20211;-36
2022/12/22 05:31:19;;;;;;;3.47;2.90;;;22.20;59.10;;;;;;5029511;28;20204;-36
2022/12/22 05:33:45;;;;;;;3.55;2.50;;;22.20;58.90;;;;;;5027405;28;20200;-37
2022/12/22 05:36:12;;;;;;;3.08;2.78;;;22.30;59.00;;;;;;5031275;28;20652;-37
2022/12/22 05:38:39;;;;;;;3.90;2.50;;;22.40;59.30;;;;;;5028103;28;20699;-35
2022/12/22 05:41:06;;;;;;;3.75;2.25;;;22.40;58.60;;;;;;5031809;28;20624;-36
2022/12/22 05:43:34;;;;;;;2.20;2.00;;;22.40;58.60;;;;;;5030528;28;20695;-36
2022/12/22 05:46:04;;;;;;;4.45;2.97;;;22.40;58.70;;;;;;5028223;28;20211;-37
2022/12/22 05:48:30;;;;;;;2.22;2.03;;;22.30;58.80;;;;;;5028411;28;20204;-37
2022/12/22 05:50:57;;;;;;;4.32;2.83;;;22.30;58.80;;;;;;5032315;28;20211;-36
2022/12/22 05:53:24;;;;;;;3.22;2.75;;;22.40;58.80;;;;;;5025471;28;20228;-39
2022/12/22 05:55:51;;;;;;;3.25;2.78;;;22.60;58.60;;;;;;5035882;28;20199;-37
2022/12/22 05:58:18;;;;;;;4.70;1.92;;;22.60;58.40;;;;;;5030939;28;20204;-36
2022/12/22 06:00:46;;;;;;;2.47;2.00;;;22.60;58.40;;;;;;5027787;28;20664;-36
2022/12/22 06:03:14;;;;;;;4.60;2.88;;;22.50;58.40;;;;;;5022684;28;20224;-39
2022/12/22 06:05:40;;;;;;;2.78;2.47;;;22.40;58.50;;;;;;5031118;28;20200;-35
2022/12/22 06:08:07;;;;;;;2.60;2.28;;;22.40;58.60;;;;;;5035552;28;20196;-40
2022/12/22 06:10:34;;;;;;;2.58;2.30;;;22.60;58.60;;;;;;5029695;28;20801;-35
2022/12/22 06:13:01;;;;;;;2.15;1.95;;;22.70;58.30;;;;;;5029606;28;20247;-36
2022/12/22 06:15:28;;;;;;;2.05;1.85;;;22.70;58.20;;;;;;5031017;28;20204;-37
2022/12/22 06:17:55;;;;;;;2.40;2.20;;;22.70;58.20;;;;;;5030123;28;20218;-36
2022/12/22 06:20:23;;;;;;;2.20;2.00;;;22.60;58.30;;;;;;5031573;28;20688;-37
2022/12/22 06:22:49;;;;;;;4.03;2.20;;;22.50;58.40;;;;;;5035522;28;20310;-37
2022/12/22 06:25:16;;;;;;;2.80;2.35;;;22.50;58.50;;;;;;5024912;28;20195;-40
2022/12/22 06:27:43;;;;;;;2.92;2.10;;;22.50;58.50;;;;;;5032786;28;20211;-36
2022/12/22 06:30:10;;;;;;;2.60;2.00;;;22.50;58.50;;;;;;5028471;28;20668;-36
2022/12/22 06:32:37;;;;;;;3.03;2.38;;;22.60;58.40;;;;;;5024840;28;20664;-38
2022/12/22 06:35:06;;;;;;;1.98;1.63;;;22.70;58.40;;;;;;5032066;28;20193;-36
2022/12/22 06:37:34;;;;;;;2.40;2.13;;;22.60;58.70;;;;;;5034838;28;20667;-36
2022/12/22 06:40:00;;;;;;;2.30;2.03;;;22.60;58.30;;;;;;5027801;28;20196;-36
2022/12/22 06:45:11;;;;;;;2.95;2.63;;;22.50;58.40;;;;;;5028324;28;20289;-36
2022/12/22 06:47:38;;;;;;;2.58;1.63;;;22.50;58.40;;;;;;5020874;28;20197;-36
2022/12/22 06:50:06;;;;;;;2.55;2.15;;;22.60;58.40;;;;;;5027665;28;20223;-36
2022/12/22 06:52:34;;;;;;;2.40;1.92;;;22.60;58.40;;;;;;5029920;28;20197;-37
2022/12/22 06:55:01;;;;;;;2.83;2.03;;;22.70;58.30;;;;;;5027086;28;20194;-35
2022/12/22 06:57:28;;;;;;;2.45;1.70;;;22.70;58.30;;;;;;5032842;28;20195;-36
2022/12/22 06:59:55;;;;;;;2.78;1.80;;;22.70;58.30;;;;;;5029153;28;20719;-35
2022/12/22 07:02:21;;;;;;;4.00;2.10;;;22.80;58.20;;;;;;5031516;28;20290;-35
2022/12/22 07:04:48;;;;;;;2.10;2.00;;;22.80;58.00;;;;;;5024422;28;20591;-35
2022/12/22 07:07:15;;;;;;;2.42;2.10;;;22.80;58.00;;;;;;5030881;28;20200;-40
2022/12/22 07:09:43;;;;;;;4.60;2.60;;;22.80;58.10;;;;;;5025530;28;20187;-35
2022/12/22 07:12:09;;;;;;;2.30;1.70;;;22.80;58.10;;;;;;5026287;28;20204;-36
2022/12/22 07:14:36;;;;;;;2.70;1.85;;;22.70;58.20;;;;;;5025389;28;20200;-36
2022/12/22 07:17:03;;;;;;;2.65;1.70;;;22.60;58.80;;;;;;5027900;28;20599;-36
2022/12/22 07:19:29;;;;;;;2.13;1.90;;;22.50;58.30;;;;;;5027214;28;20221;-38
2022/12/22 07:21:56;;;;;;;1.90;1.67;;;22.50;58.40;;;;;;5034246;28;20192;-36
2022/12/22 07:24:24;;;;;;;2.33;1.80;;;22.60;58.40;;;;;;5020332;28;20266;-34
2022/12/22 07:26:52;;;;;;;2.20;2.00;;;22.70;58.40;;;;;;5027566;28;20291;-37
2022/12/22 07:29:19;;;;;;;2.33;2.05;;;22.60;58.30;;;;;;5034531;28;20651;-38
2022/12/22 07:31:46;;;;;;;2.40;1.85;;;22.70;58.30;;;;;;5025891;28;20197;-36
2022/12/22 07:34:12;;;;;;;1.80;1.67;;;22.70;58.20;;;;;;5028102;28;20204;-36
2022/12/22 07:36:39;;;;;;;1.63;1.45;;;22.70;58.20;;;;;;5031565;28;20336;-35
2022/12/22 07:39:07;;;;;;;1.77;1.55;;;22.80;58.10;;;;;;5023820;28;20200;-35
2022/12/22 07:44:19;;;;;;;1.90;1.80;;;22.80;58.10;;;;;;5026737;28;20231;-35
2022/12/22 07:46:46;;;;;;;2.00;1.48;;;22.80;58.10;;;;;;5028585;28;20648;-44
2022/12/22 07:51:58;;;;;;;2.10;1.90;;;22.60;58.20;;;;;;5026306;28;20262;-35
2022/12/22 07:54:25;;;;;;;2.10;1.80;;;22.60;58.30;;;;;;5030596;28;20192;-37
2022/12/22 07:56:52;;;;;;;1.90;1.50;;;22.60;58.40;;;;;;5028526;28;20468;-35
2022/12/22 07:59:21;;;;;;;1.88;1.45;;;22.60;58.40;;;;;;5028607;28;20203;-35
2022/12/22 08:01:47;;;;;;;3.47;1.73;;;22.60;58.40;;;;;;5027334;28;20203;-36
2022/12/22 08:04:15;;;;;;;2.55;1.80;;;22.60;58.40;;;;;;5028083;28;20639;-35
2022/12/22 08:06:42;;;;;;;2.28;1.73;;;22.60;58.30;;;;;;5029026;28;20197;-35
2022/12/22 08:09:10;;;;;;;1.50;1.40;;;22.60;58.30;;;;;;5024408;28;20192;-36
2022/12/22 08:11:36;;;;;;;2.10;1.90;;;22.70;58.30;;;;;;5028496;28;20207;-35
2022/12/22 08:14:03;;;;;;;3.00;1.70;;;22.70;58.30;;;;;;5031314;28;20200;-37
2022/12/22 08:16:31;;;;;;;1.60;1.50;;;22.70;58.30;;;;;;5026201;28;20700;-35
2022/12/22 08:18:58;;;;;;;2.33;2.13;;;22.80;58.20;;;;;;5022937;28;20686;-35
2022/12/22 08:21:24;;;;;;;3.10;1.58;;;22.70;58.20;;;;;;5028103;28;20205;-38
2022/12/22 08:23:51;;;;;;;1.80;1.60;;;22.70;58.80;;;;;;5023595;28;20223;-37
2022/12/22 08:26:23;;;;;;;1.83;1.73;;;22.80;58.30;;;;;;5032251;28;20188;-35
2022/12/22 08:28:55;;;;;;;1.98;1.80;;;22.80;58.30;;;;;;5031659;28;22337;-35
2022/12/22 08:31:24;;;;;;;1.67;1.57;;;22.70;58.30;;;;;;5020305;28;20649;-35
2022/12/22 08:33:52;;;;;;;2.03;1.63;;;22.70;58.40;;;;;;5028857;28;20468;-35
2022/12/22 08:36:19;;;;;;;2.28;1.90;;;22.60;58.30;;;;;;5030758;28;20875;-37
2022/12/22 08:38:46;;;;;;;2.15;1.80;;;22.70;58.40;;;;;;5028806;28;20208;-35
2022/12/22 08:41:48;;;;;;;5.32;1.70;;;22.70;58.40;;;;;;5029633;28;20196;-35
2022/12/22 08:44:02;;;;;;;3.47;1.67;;;22.60;58.40;;;;;;5030812;28;20240;-36
2022/12/22 08:46:29;;;;;;;2.60;1.83;;;22.60;58.40;;;;;;5026304;28;20463;-35
2022/12/22 08:48:57;;;;;;;3.00;2.30;;;22.60;58.50;;;;;;5028917;28;20458;-35
2022/12/22 08:51:24;;;;;;;3.08;2.05;;;22.60;58.60;;;;;;5028796;28;20242;-37
2022/12/22 08:53:50;;;;;;;2.25;1.63;;;22.60;58.60;;;;;;5032895;28;20293;-35
2022/12/22 08:56:17;;;;;;;1.90;1.48;;;22.50;58.60;;;;;;5030947;28;20679;-35
2022/12/22 08:58:44;;;;;;;1.50;1.40;;;22.50;58.70;;;;;;5034695;28;20200;-36
2022/12/22 09:01:16;;;;;;;2.23;2.03;;;22.50;58.80;;;;;;5034748;28;20541;-36
2022/12/22 09:03:43;;;;;;;4.40;1.85;;;22.60;58.90;;;;;;5026634;28;20569;-35
2022/12/22 09:06:11;;;;;;;2.22;1.85;;;22.50;58.80;;;;;;5033855;28;20193;-36
2022/12/22 09:08:37;;;;;;;3.00;1.93;;;22.50;58.90;;;;;;5028439;28;20201;-34
2022/12/22 09:11:05;;;;;;;1.75;1.65;;;22.50;58.90;;;;;;5029601;28;20460;-35
2022/12/22 09:13:31;;;;;;;3.67;2.00;;;22.50;59.50;;;;;;5031092;28;20203;-35
2022/12/22 09:15:58;;;;;;;3.33;2.30;;;22.40;59.00;;;;;;5031428;28;20676;-36
2022/12/22 09:18:25;;;;;;;2.10;1.90;;;22.40;59.20;;;;;;5032872;28;20462;-36
2022/12/22 09:20:54;;;;;;;1.98;1.58;;;22.30;59.30;;;;;;5035583;28;20221;-35
2022/12/22 09:23:22;;;;;;;2.58;1.88;;;22.30;59.40;;;;;;5026458;28;20232;-35
2022/12/22 09:25:49;;;;;;;3.78;2.17;;;22.20;59.50;;;;;;5032535;28;20201;-35
2022/12/22 09:28:16;;;;;;;1.67;1.57;;;22.10;59.60;;;;;;5039402;28;20203;-35
2022/12/22 09:30:43;;;;;;;2.10;1.53;;;22.10;59.90;;;;;;5031730;28;20468;-35
2022/12/22 09:33:09;;;;;;;2.72;2.10;;;22.00;59.90;;;;;;5020951;28;20525;-35
2022/12/22 09:35:40;;;;;;;3.10;2.10;;;22.00;59.90;;;;;;5031066;28;20203;-35
2022/12/22 09:38:07;;;;;;;2.40;2.20;;;22.10;60.00;;;;;;5025504;28;20886;-35
2022/12/22 09:40:35;;;;;;;3.35;2.03;;;22.10;59.80;;;;;;5032752;28;20204;-36
2022/12/22 09:43:04;;;;;;;2.20;1.53;;;22.20;60.50;;;;;;5031429;28;20656;-35
2022/12/22 09:45:32;;;;;;;2.57;1.87;;;22.20;59.60;;;;;;5032771;28;20490;-36
2022/12/22 09:48:02;;;;;;;2.67;2.33;;;22.40;59.50;;;;;;5027716;28;20502;-42
2022/12/22 09:50:32;;;;;;;6.07;5.50;;;22.70;59.90;;;;;;5025797;28;20570;-44
2022/12/22 09:53:02;;;;;;;7.05;5.03;;;22.50;60.00;;;;;;5031027;28;20992;-46
2022/12/22 09:55:40;;;;;;;6.93;5.13;;;22.10;61.00;;;;;;5027758;28;20209;-46
2022/12/22 09:58:18;;;;;;;16.85;3.92;;;21.80;62.20;;;;;;5028498;28;20231;-41
2022/12/22 10:00:50;;;;;;;6.00;5.55;;;21.60;63.20;;;;;;5026358;28;20688;-44
2022/12/22 10:03:29;;;;;;;5.15;4.75;;;21.70;62.70;;;;;;5025710;28;20551;-42
2022/12/22 10:06:05;;;;;;;4.50;3.60;;;21.90;62.20;;;;;;5026198;28;20201;-46
2022/12/22 10:08:34;;;;;;;3.63;2.28;;;22.10;61.80;;;;;;5026468;28;20209;-45
2022/12/22 10:11:02;;;;;;;4.32;2.53;;;22.20;61.40;;;;;;5027240;28;20207;-44
2022/12/22 10:13:29;;;;;;;88.35;84.13;;;22.30;61.10;;;;;;5034440;28;20204;-46
2022/12/22 10:15:56;;;;;;;2.20;2.00;;;22.40;60.80;;;;;;5026130;28;20193;-45
2022/12/22 10:18:25;;;;;;;155.02;148.38;;;22.50;60.50;;;;;;5029756;28;20612;-45
2022/12/22 10:21:08;;;;;;;364.83;349.77;;;22.50;60.30;;;;;;5024397;28;20236;-45
2022/12/22 10:23:38;;;;;;;398.15;381.50;;;22.60;60.30;;;;;;5026055;28;20200;-44
2022/12/22 10:26:10;;;;;;;685.08;639.47;;;22.60;60.10;;;;;;5035827;28;20313;-45
2022/12/22 10:28:40;;;;;;;774.25;711.38;;;22.60;60.10;;;;;;5032735;28;20207;-45
2022/12/22 10:31:14;;;;;;;804.15;737.25;;;22.50;60.10;;;;;;5033102;28;20193;-47
2022/12/22 10:33:43;;;;;;;790.17;727.70;;;22.50;60.10;;;;;;5027259;28;20200;-45
2022/12/22 10:36:10;;;;;;;798.22;729.17;;;22.40;60.00;;;;;;5027019;28;20193;-44
2022/12/22 10:38:38;;;;;;;785.10;721.90;;;22.40;60.10;;;;;;5025349;28;20200;-45
2022/12/22 10:41:18;;;;;;;633.55;579.70;;;22.40;60.40;;;;;;5027029;28;20215;-45
2022/12/22 10:43:48;;;;;;;831.70;752.55;;;22.30;60.40;;;;;;5031574;28;20283;-47
2022/12/22 10:46:15;;;;;;;767.90;700.25;;;22.20;60.70;;;;;;5030119;28;20506;-47
2022/12/22 10:48:42;;;;;;;821.08;744.97;;;22.20;61.00;;;;;;5024551;28;20201;-45
2022/12/22 10:51:12;;;;;;;811.88;741.00;;;22.20;61.10;;;;;;5027505;28;20243;-45
2022/12/22 10:53:44;;;;;;;817.00;746.60;;;22.10;61.10;;;;;;5027111;28;20203;-46
2022/12/22 10:56:21;;;;;;;5.45;4.95;;;22.10;61.20;;;;;;5027345;28;20223;-45
2022/12/22 10:58:50;;;;;;;25.75;23.95;;;22.10;61.30;;;;;;5029414;28;20664;-44
2022/12/22 11:01:28;;;;;;;20.70;19.50;;;22.00;61.30;;;;;;5024567;28;20203;-44
2022/12/22 11:03:55;;;;;;;3.42;3.13;;;22.00;61.30;;;;;;5027286;28;20212;-45
2022/12/22 11:06:22;;;;;;;3.60;3.30;;;22.00;61.20;;;;;;5027687;28;20193;-44
2022/12/22 11:08:50;;;;;;;3.85;3.05;;;22.00;61.20;;;;;;5023845;28;20650;-51
2022/12/22 11:11:30;;;;;;;12.20;11.48;;;22.00;61.20;;;;;;5027329;28;20204;-44
2022/12/22 11:14:08;;;;;;;2.60;2.40;;;21.90;61.10;;;;;;5028551;28;20208;-43
2022/12/22 11:16:44;;;;;;;3.20;2.55;;;21.90;61.10;;;;;;5028724;28;20203;-48
2022/12/22 11:19:45;;;;;;;2.40;1.70;;;21.90;61.10;;;;;;5017664;28;20224;-46
2022/12/22 11:22:28;;;;;;;2.50;2.30;;;22.00;61.10;;;;;;5013607;28;20224;-45
2022/12/22 11:25:12;;;;;;;3.08;1.90;;;21.90;61.10;;;;;;5031477;28;20630;-44
2022/12/22 11:27:50;;;;;;;2.40;2.13;;;21.90;61.20;;;;;;5022685;28;20191;-45
2022/12/22 11:30:20;;;;;;;3.40;1.90;;;21.90;61.30;;;;;;5031164;28;20611;-45
2022/12/22 11:33:15;;;;;;;9.18;2.55;;;21.90;61.40;;;;;;5016650;28;20198;-44
2022/12/22 11:35:52;;;;;;;3.25;3.05;;;21.90;61.40;;;;;;5024381;28;20286;-42
2022/12/22 11:38:32;;;;;;;3.60;1.75;;;21.90;61.30;;;;;;5019654;28;20684;-46
2022/12/22 11:41:06;;;;;;;2.78;2.58;;;22.10;61.90;;;;;;5031513;28;20243;-46
2022/12/22 11:43:47;;;;;;;5.38;2.30;;;22.30;61.70;;;;;;5034222;28;20197;-46
2022/12/22 11:46:21;;;;;;;3.33;3.00;;;22.40;61.40;;;;;;5024537;28;20207;-46
2022/12/22 11:49:03;;;;;;;3.80;2.42;;;22.60;61.10;;;;;;5021685;28;20202;-47
2022/12/22 11:51:43;;;;;;;8.45;7.95;;;22.70;60.90;;;;;;5022235;28;20225;-47
2022/12/22 11:54:31;;;;;;;2.25;2.00;;;22.80;60.60;;;;;;5019767;28;20199;-46
2022/12/22 11:57:09;;;;;;;3.42;3.22;;;22.90;60.50;;;;;;5030377;28;20195;-47
2022/12/22 11:59:46;;;;;;;2.17;1.98;;;23.00;60.40;;;;;;5018802;28;20196;-46
2022/12/22 12:02:55;;;;;;;2.17;1.98;;;22.80;59.80;;;;;;5027021;28;20205;-45
2022/12/22 12:06:04;;;;;;;1.48;1.38;;;22.70;60.60;;;;;;5030071;28;20221;-50
2022/12/22 12:08:42;;;;;;;2.33;1.33;;;22.90;60.70;;;;;;5005470;28;20266;-50
2022/12/22 12:11:17;;;;;;;1.65;1.45;;;22.90;60.60;;;;;;5033432;28;20193;-45
2022/12/22 12:13:50;;;;;;;3.33;1.50;;;22.90;60.60;;;;;;5039317;28;20192;-46
2022/12/22 12:16:25;;;;;;;2.00;1.58;;;22.90;60.60;;;;;;5034210;28;20596;-46
2022/12/22 12:19:08;;;;;;;1.75;1.30;;;22.90;60.60;;;;;;5034239;28;20539;-51
2022/12/22 12:21:44;;;;;;;1.60;1.40;;;23.00;60.70;;;;;;5034661;28;20249;-49
2022/12/22 12:24:32;;;;;;;2.50;1.90;;;23.00;60.70;;;;;;5028680;28;20200;-49
2022/12/22 12:27:08;;;;;;;1.55;1.33;;;22.50;59.70;;;;;;5039942;28;20193;-47
2022/12/22 12:29:38;;;;;;;2.25;1.98;;;22.50;61.00;;;;;;5036665;28;20754;-46
2022/12/22 12:32:11;;;;;;;1.40;1.30;;;22.70;60.90;;;;;;5027356;28;20208;-47
2022/12/22 12:34:42;;;;;;;1.73;1.20;;;22.80;60.70;;;;;;5028803;28;20250;-49
2022/12/22 12:37:17;;;;;;;2.17;1.35;;;22.90;60.70;;;;;;5028810;28;20442;-47
2022/12/22 12:39:56;;;;;;;1.73;1.33;;;22.90;60.60;;;;;;5031694;28;20651;-50
2022/12/22 12:42:30;;;;;;;3.22;1.50;;;22.90;60.50;;;;;;5030570;28;20815;-49
2022/12/22 12:44:58;;;;;;;2.30;1.27;;;22.90;60.40;;;;;;5032071;28;20219;-48
2022/12/22 12:47:28;;;;;;;5.10;2.50;;;22.90;60.50;;;;;;5028897;28;20465;-51
2022/12/22 12:50:00;;;;;;;2.03;1.30;;;22.90;60.50;;;;;;5029842;28;20221;-50
2022/12/22 12:53:13;;;;;;;1.27;1.17;;;23.00;60.60;;;;;;5024365;28;20456;-47
2022/12/22 12:55:56;;;;;;;2.72;1.13;;;23.00;60.70;;;;;;5041702;28;20266;-55
2022/12/22 12:58:50;;;;;;;1.40;1.23;;;23.00;60.70;;;;;;5044313;28;20192;-46
2022/12/22 13:01:53;;;;;;;2.33;1.33;;;23.00;60.70;;;;;;5050889;28;20282;-45
2022/12/22 13:05:05;;;;;;;1.80;1.33;;;23.00;60.80;;;;;;5022469;28;20547;-45
2022/12/22 13:08:09;;;;;;;1.80;1.40;;;23.00;60.80;;;;;;5012220;28;20542;-50
2022/12/22 13:10:39;;;;;;;2.00;1.43;;;23.00;60.80;;;;;;5036190;28;20249;-49
2022/12/22 13:13:06;;;;;;;1.20;1.08;;;23.00;61.50;;;;;;5045639;28;20457;-48
2022/12/22 13:15:34;;;;;;;2.17;1.98;;;23.10;60.90;;;;;;5045877;28;20206;-53
2022/12/22 13:18:02;;;;;;;1.90;1.80;;;23.10;60.70;;;;;;5029411;28;20198;-53
2022/12/22 13:20:32;;;;;;;1.67;1.23;;;23.10;60.60;;;;;;5043480;28;20213;-51
2022/12/22 13:23:01;;;;;;;1.10;1.00;;;23.10;60.70;;;;;;5039679;28;20466;-46
2022/12/22 13:25:41;;;;;;;1.70;1.27;;;23.10;60.60;;;;;;5040240;28;20235;-47
2022/12/22 13:28:15;;;;;;;1.40;1.20;;;23.10;60.70;;;;;;5044594;28;20486;-48
2022/12/22 13:30:45;;;;;;;1.83;1.17;;;23.10;60.70;;;;;;5036661;28;20251;-44
2022/12/22 13:33:17;;;;;;;2.00;1.30;;;23.10;60.70;;;;;;5035337;28;20463;-50
2022/12/22 13:35:45;;;;;;;1.70;1.33;;;23.10;60.80;;;;;;5026557;28;20464;-46
2022/12/22 13:38:27;;;;;;;1.30;1.20;;;23.10;60.70;;;;;;5027736;28;20462;-43
2022/12/22 13:40:56;;;;;;;1.10;1.00;;;23.20;60.80;;;;;;5020323;28;20202;-46
2022/12/22 13:43:26;;;;;;;1.70;1.50;;;23.20;60.80;;;;;;5029833;28;20464;-45
2022/12/22 13:45:55;;;;;;;1.60;1.23;;;23.10;61.50;;;;;;5038610;28;20228;-46
2022/12/22 13:48:25;;;;;;;1.50;1.23;;;23.10;60.70;;;;;;5027656;28;20197;-47
2022/12/22 13:50:54;;;;;;;1.33;1.23;;;23.10;60.80;;;;;;5032526;28;20460;-50
2022/12/22 13:53:32;;;;;;;1.85;1.40;;;23.10;60.80;;;;;;5038034;28;20465;-48
2022/12/22 13:56:00;;;;;;;1.30;1.20;;;23.10;60.90;;;;;;5033172;28;20200;-47
2022/12/22 13:58:29;;;;;;;1.30;1.08;;;23.10;60.90;;;;;;5045318;28;20209;-43
2022/12/22 14:01:12;;;;;;;1.77;1.20;;;23.10;61.00;;;;;;5041414;28;20211;-49
2022/12/22 14:03:46;;;;;;;1.60;1.40;;;23.10;61.00;;;;;;5024958;28;20541;-50
2022/12/22 14:06:25;;;;;;;1.25;1.00;;;23.00;61.10;;;;;;5030375;28;20304;-48
2022/12/22 14:08:52;;;;;;;1.50;1.30;;;23.00;61.00;;;;;;5023258;28;20564;-48
2022/12/22 14:11:20;;;;;;;2.63;1.07;;;23.00;61.10;;;;;;5035086;28;20463;-47
2022/12/22 14:13:47;;;;;;;1.63;1.50;;;23.00;61.10;;;;;;5043255;28;20481;-49
2022/12/22 14:16:14;;;;;;;1.60;1.40;;;23.00;61.10;;;;;;5042206;28;20205;-48
2022/12/22 14:18:42;;;;;;;1.23;0.98;;;23.00;61.10;;;;;;5023539;28;20279;-50
2022/12/22 14:21:09;;;;;;;1.30;1.20;;;23.00;61.10;;;;;;5037068;28;20212;-45
2022/12/22 14:23:39;;;;;;;2.58;1.63;;;23.00;61.10;;;;;;5030085;28;20213;-45
2022/12/22 14:26:08;;;;;;;1.17;0.95;;;23.00;61.10;;;;;;5042616;28;20220;-51
2022/12/22 14:28:48;;;;;;;2.33;1.20;;;23.00;61.10;;;;;;5039421;28;20200;-48
2022/12/22 14:31:16;;;;;;;3.20;1.58;;;23.00;61.10;;;;;;5025182;28;20726;-46
2022/12/22 14:33:51;;;;;;;1.60;1.05;;;23.00;61.20;;;;;;5033677;28;20204;-45
2022/12/22 14:36:22;;;;;;;1.43;1.17;;;23.10;61.30;;;;;;5032802;28;20200;-42
2022/12/22 14:38:50;;;;;;;1.53;1.17;;;22.80;60.90;;;;;;5033653;28;20985;-42
2022/12/22 14:41:43;;;;;;;1.83;1.17;;;22.60;61.60;;;;;;5036622;28;20462;-43
2022/12/22 14:44:16;;;;;;;2.50;1.10;;;22.60;61.80;;;;;;5020937;28;20550;-44
2022/12/22 14:46:44;;;;;;;2.00;1.33;;;22.60;61.80;;;;;;5024619;28;20799;-42
2022/12/22 14:49:15;;;;;;;1.92;1.45;;;22.50;61.80;;;;;;5028734;28;20517;-43
2022/12/22 14:51:42;;;;;;;1.93;1.30;;;22.50;61.80;;;;;;5025737;28;20200;-43
2022/12/22 14:54:19;;;;;;;2.90;1.00;;;22.40;61.80;;;;;;5026629;28;20460;-42
2022/12/22 14:56:48;;;;;;;1.02;0.82;;;22.40;62.00;;;;;;5030316;28;20455;-43
2022/12/22 14:59:25;;;;;;;1.40;1.30;;;22.30;61.90;;;;;;5024494;28;20296;-42
2022/12/22 15:02:00;;;;;;;1.20;1.00;;;22.20;61.90;;;;;;5020369;28;20293;-42
2022/12/22 15:04:27;;;;;;;2.13;1.48;;;22.20;62.10;;;;;;5024246;28;20201;-43
2022/12/22 15:07:05;;;;;;;1.50;1.10;;;22.20;62.30;;;;;;5024398;28;20224;-42
2022/12/22 15:09:32;;;;;;;1.20;1.02;;;22.10;62.30;;;;;;5020451;28;20487;-45
2022/12/22 15:12:05;;;;;;;2.20;0.97;;;22.20;62.40;;;;;;5024914;28;20194;-43
2022/12/22 15:14:36;;;;;;;1.70;1.10;;;22.30;62.10;;;;;;5033996;28;20432;-46
2022/12/22 15:17:03;;;;;;;1.83;1.45;;;22.30;62.10;;;;;;5024281;28;20197;-48
2022/12/22 15:19:32;;;;;;;3.95;1.80;;;22.50;62.30;;;;;;5034172;28;20224;-47
2022/12/22 15:21:59;;;;;;;0.97;0.80;;;22.70;62.00;;;;;;5024713;28;20688;-49
2022/12/22 15:24:28;;;;;;;1.27;1.17;;;22.90;61.60;;;;;;5028834;28;20460;-52
2022/12/22 15:26:55;;;;;;;1.25;1.00;;;23.00;61.30;;;;;;5029003;28;20290;-49
2022/12/22 15:29:21;;;;;;;1.33;1.13;;;23.10;61.10;;;;;;5035239;28;20271;-49
2022/12/22 15:31:50;;;;;;;1.10;1.00;;;23.20;61.00;;;;;;5022676;28;20466;-50
2022/12/22 15:34:23;;;;;;;1.40;1.10;;;23.20;60.70;;;;;;5019815;28;20198;-51
2022/12/22 15:36:50;;;;;;;2.53;1.20;;;23.20;60.70;;;;;;5030558;28;20882;-55
2022/12/22 15:39:19;;;;;;;1.90;1.10;;;23.20;60.70;;;;;;5025371;28;20700;-50
2022/12/22 15:41:46;;;;;;;1.40;1.30;;;23.30;60.80;;;;;;5025976;28;20977;-51
2022/12/22 15:44:14;;;;;;;1.77;1.13;;;23.30;60.70;;;;;;5028908;28;20484;-47
2022/12/22 15:46:43;;;;;;;1.30;1.10;;;23.30;60.70;;;;;;5025134;28;20482;-48
2022/12/22 15:49:16;;;;;;;1.10;0.90;;;23.30;60.60;;;;;;5025165;28;20464;-56
2022/12/22 15:51:44;;;;;;;1.73;0.90;;;23.30;60.50;;;;;;5033487;28;20507;-51
2022/12/22 15:54:14;;;;;;;1.33;1.00;;;23.30;60.50;;;;;;5030517;28;20513;-51
2022/12/22 15:56:42;;;;;;;1.10;0.93;;;23.30;60.60;;;;;;5035816;28;20516;-53
2022/12/22 15:59:14;;;;;;;1.20;1.10;;;23.30;60.90;;;;;;5034241;28;20466;-51
2022/12/22 16:01:41;;;;;;;1.20;1.03;;;23.20;60.80;;;;;;5026580;28;20486;-50
2022/12/22 16:04:08;;;;;;;1.77;1.10;;;23.20;61.00;;;;;;5023184;28;20841;-48
2022/12/22 16:06:36;;;;;;;1.13;1.00;;;23.10;61.10;;;;;;5030264;28;20483;-53
2022/12/22 16:09:08;;;;;;;1.27;1.03;;;23.10;61.20;;;;;;5026502;28;20461;-50
2022/12/22 16:11:37;;;;;;;1.10;1.00;;;23.00;61.20;;;;;;5024606;28;20457;-57
2022/12/22 16:14:04;;;;;;;1.17;1.08;;;23.10;61.40;;;;;;5021708;28;20467;-52
2022/12/22 16:16:31;;;;;;;1.43;1.27;;;23.00;61.40;;;;;;5030192;28;20223;-53
2022/12/22 16:18:58;;;;;;;1.20;0.90;;;23.00;61.40;;;;;;5033582;28;20462;-54
2022/12/22 16:21:30;;;;;;;1.20;1.07;;;23.00;61.50;;;;;;5044229;28;20470;-53
2022/12/22 16:24:02;;;;;;;1.10;0.90;;;23.00;61.70;;;;;;5027940;28;20452;-53
2022/12/22 16:26:29;;;;;;;1.30;1.20;;;22.90;61.60;;;;;;5033656;28;20478;-54
2022/12/22 16:28:57;;;;;;;1.03;0.93;;;22.90;61.70;;;;;;5035976;28;20252;-54
2022/12/22 16:31:25;;;;;;;1.30;1.00;;;22.90;61.70;;;;;;5022976;28;20465;-53
2022/12/22 16:33:52;;;;;;;2.03;1.00;;;22.90;61.50;;;;;;5033165;28;20466;-56
2022/12/22 16:36:19;;;;;;;1.30;1.00;;;22.90;61.40;;;;;;5032480;28;20925;-55
2022/12/22 16:38:47;;;;;;;1.00;0.90;;;23.00;61.50;;;;;;5025314;28;20845;-56
2022/12/22 16:41:21;;;;;;;1.13;0.90;;;22.90;61.30;;;;;;5031260;28;20493;-54
2022/12/22 16:43:49;;;;;;;1.00;0.90;;;23.00;61.40;;;;;;5033703;28;21034;-53
2022/12/22 16:46:18;;;;;;;1.30;1.20;;;23.00;61.40;;;;;;5025635;28;20482;-54